createdAt,value
2023-01-23T00:08:29.122Z,103772.31
2023-01-23T00:18:50.768Z,103779.97
2023-01-23T00:29:12.210Z,103769.59
2023-01-23T00:39:33.563Z,103781.44
2023-01-23T00:49:57.485Z,103789.88
2023-01-23T01:00:19.217Z,103789.94
2023-01-23T01:10:41.449Z,103782.84
2023-01-23T01:21:06.086Z,103774.22
2023-01-23T01:31:27.748Z,103802.28
2023-01-23T01:41:49.230Z,103797.94
2023-01-23T01:52:11.888Z,103794.38
2023-01-23T02:02:35.729Z,103810.50
2023-01-23T02:13:17.115Z,103826.81
2023-01-23T02:23:47.742Z,103823.38
2023-01-23T02:34:10.509Z,103818.97
2023-01-23T02:44:32.196Z,103826.88
2023-01-23T02:54:53.843Z,103827.78
2023-01-23T03:05:15.457Z,103838.69
2023-01-23T03:15:39.101Z,103835.25
2023-01-23T03:26:00.531Z,103834.50
2023-01-23T03:36:21.917Z,103844.59
2023-01-23T03:46:43.260Z,103846.31
2023-01-23T03:57:04.628Z,103851.44
2023-01-23T04:07:26.028Z,103864.97
2023-01-23T04:17:47.377Z,103864.84
2023-01-23T04:28:08.717Z,103874.13
2023-01-23T04:38:30.546Z,103879.97
2023-01-23T04:48:51.974Z,103889.44
2023-01-23T04:59:14.071Z,103895.41
2023-01-23T05:09:35.404Z,103896.31
2023-01-23T05:19:56.732Z,103898.03
2023-01-23T05:30:20.416Z,103906.69
2023-01-23T05:40:41.915Z,103906.59
2023-01-23T05:51:03.923Z,103928.72
2023-01-23T06:01:25.450Z,103936.19
2023-01-23T06:11:46.796Z,103946.44
2023-01-23T06:22:08.244Z,103947.28
2023-01-23T06:32:29.612Z,103939.63
2023-01-23T06:42:54.443Z,103948.41
2023-01-23T06:53:16.075Z,103949.28
2023-01-23T07:03:37.496Z,103956.94
2023-01-23T07:13:59.197Z,103979.88
2023-01-23T07:24:20.553Z,103973.22
2023-01-23T07:34:41.915Z,103999.66
2023-01-23T07:45:03.361Z,104015.97
2023-01-23T07:55:24.765Z,104022.47
2023-01-23T08:05:49.728Z,104036.34
2023-01-23T08:16:13.532Z,104039.03
2023-01-23T08:26:35.165Z,104045.88
2023-01-23T08:36:56.574Z,104046.91
2023-01-23T08:47:17.964Z,104057.47
2023-01-23T08:57:39.362Z,104051.69
2023-01-23T09:08:00.755Z,104051.91
2023-01-23T09:18:25.226Z,104053.75
2023-01-23T09:28:46.651Z,104066.63
2023-01-23T09:39:08.116Z,104072.56
2023-01-23T09:49:49.277Z,104057.47
2023-01-23T10:00:17.872Z,104062.88
2023-01-23T10:10:59.595Z,104065.75
2023-01-23T10:21:46.204Z,104065.81
2023-01-23T10:32:17.832Z,104077.22
2023-01-23T10:42:39.240Z,104061.84
2023-01-23T10:53:08.682Z,104062.00
2023-01-23T11:03:32.354Z,104062.44
2023-01-23T11:14:06.067Z,104076.34
2023-01-23T11:24:41.188Z,104071.41
2023-01-23T11:35:10.829Z,104064.00
2023-01-23T11:45:32.154Z,104066.31
2023-01-23T11:56:12.356Z,104055.47
2023-01-23T12:06:49.628Z,104054.13
2023-01-23T12:17:17.164Z,104053.66
2023-01-23T12:27:46.341Z,104051.50
2023-01-23T12:38:19.346Z,104056.84
2023-01-23T12:48:43.817Z,104062.69
2023-01-23T12:59:15.826Z,104057.56
2023-01-23T13:09:37.282Z,104062.47
2023-01-23T13:20:37.513Z,104072.69
2023-01-23T13:31:00.526Z,104077.75
2023-01-23T13:41:29.165Z,104076.03
2023-01-23T14:24:03.831Z,104084.44
2023-01-23T14:34:26.049Z,104068.16
2023-01-23T14:44:47.539Z,104051.03
2023-01-23T14:55:32.676Z,104032.09
2023-01-23T15:05:59.390Z,104016.78
2023-01-23T15:16:22.941Z,104022.63
2023-01-23T15:27:03.569Z,104038.84
2023-01-23T15:37:26.229Z,104023.34
2023-01-23T15:47:48.407Z,104040.19
2023-01-23T15:58:13.930Z,104044.47
2023-01-23T16:08:35.307Z,104061.31
2023-01-23T16:18:56.765Z,104074.09
2023-01-23T16:29:29.303Z,104075.69
2023-01-23T16:39:50.881Z,104080.69
2023-01-23T16:50:20.269Z,104094.47
2023-01-23T17:00:42.149Z,104096.97
2023-01-23T17:11:04.766Z,104090.66
2023-01-23T17:21:30.938Z,104107.97
2023-01-23T17:31:53.160Z,104121.69
2023-01-23T17:42:14.717Z,104115.66
2023-01-23T17:52:36.242Z,104114.88
2023-01-23T18:02:58.596Z,104114.03
2023-01-23T18:13:38.647Z,104130.09
2023-01-23T18:24:00.454Z,104140.22
2023-01-23T18:34:40.558Z,104144.28
2023-01-23T18:45:09.993Z,104148.56
2023-01-23T18:55:43.642Z,104161.53
2023-01-23T19:06:12.873Z,104153.84
2023-01-23T19:16:36.925Z,104162.50
2023-01-23T19:26:58.404Z,104159.78
2023-01-23T19:37:19.786Z,104158.19
2023-01-23T19:47:41.630Z,104164.09
2023-01-23T19:58:03.076Z,104165.88
2023-01-23T20:08:24.430Z,104158.13
2023-01-23T20:18:49.627Z,104158.91
2023-01-23T20:29:11.466Z,104158.19
2023-01-23T20:39:32.840Z,104169.97
2023-01-23T20:49:54.215Z,104184.34
2023-01-23T21:00:17.663Z,104182.75
2023-01-23T21:10:39.101Z,104203.09
2023-01-23T21:21:04.949Z,104187.69
2023-01-23T21:31:30.680Z,104176.56
2023-01-23T21:41:52.109Z,104178.34
2023-01-23T21:52:13.481Z,104184.47
2023-01-23T22:02:34.884Z,104194.69
2023-01-23T22:12:56.280Z,104207.34
2023-01-23T22:23:17.831Z,104212.47
2023-01-23T22:33:40.988Z,104220.25
2023-01-23T22:44:02.517Z,104215.25
2023-01-23T22:54:23.984Z,104225.38
2023-01-23T23:04:46.357Z,104215.19
2023-01-23T23:15:08.103Z,104219.44
2023-01-23T23:25:29.459Z,104213.53
2023-01-23T23:35:50.879Z,104218.47
2023-01-23T23:46:13.295Z,104222.00
2023-01-23T23:56:34.752Z,104220.41
